sensor_id;sensor_type;location;lat;lon;timestamp;P1;durP1;ratioP1;P2;durP2;ratioP2
51862;SDS011;37900;52.996;6.278;2023-04-24T00:00:11;1.92;;;1.20;;
51862;SDS011;37900;52.996;6.278;2023-04-24T00:02:40;1.63;;;1.20;;
51862;SDS011;37900;52.996;6.278;2023-04-24T00:05:11;3.22;;;1.77;;
51862;SDS011;37900;52.996;6.278;2023-04-24T00:07:39;1.67;;;1.13;;
51862;SDS011;37900;52.996;6.278;2023-04-24T00:10:05;1.73;;;1.57;;
51862;SDS011;37900;52.996;6.278;2023-04-24T00:12:31;2.77;;;1.17;;
51862;SDS011;37900;52.996;6.278;2023-04-24T00:14:57;1.98;;;1.30;;
51862;SDS011;37900;52.996;6.278;2023-04-24T00:17:23;1.45;;;1.20;;
51862;SDS011;37900;52.996;6.278;2023-04-24T00:19:49;2.20;;;1.38;;
51862;SDS011;37900;52.996;6.278;2023-04-24T00:22:23;2.15;;;1.30;;
51862;SDS011;37900;52.996;6.278;2023-04-24T00:24:50;2.28;;;1.40;;
51862;SDS011;37900;52.996;6.278;2023-04-24T00:27:15;2.22;;;1.35;;
51862;SDS011;37900;52.996;6.278;2023-04-24T00:29:41;2.42;;;1.77;;
51862;SDS011;37900;52.996;6.278;2023-04-24T00:32:07;3.10;;;1.63;;
51862;SDS011;37900;52.996;6.278;2023-04-24T00:34:33;1.33;;;1.08;;
51862;SDS011;37900;52.996;6.278;2023-04-24T00:36:58;4.22;;;1.50;;
51862;SDS011;37900;52.996;6.278;2023-04-24T00:39:24;1.73;;;1.25;;
51862;SDS011;37900;52.996;6.278;2023-04-24T00:41:50;1.80;;;1.00;;
51862;SDS011;37900;52.996;6.278;2023-04-24T00:44:16;1.92;;;1.20;;
51862;SDS011;37900;52.996;6.278;2023-04-24T00:46:42;2.88;;;1.50;;
51862;SDS011;37900;52.996;6.278;2023-04-24T00:49:08;2.35;;;1.42;;
51862;SDS011;37900;52.996;6.278;2023-04-24T00:51:34;1.70;;;1.50;;
51862;SDS011;37900;52.996;6.278;2023-04-24T00:54:00;2.00;;;1.30;;
51862;SDS011;37900;52.996;6.278;2023-04-24T00:56:26;1.58;;;1.10;;
51862;SDS011;37900;52.996;6.278;2023-04-24T00:58:52;1.90;;;1.20;;
51862;SDS011;37900;52.996;6.278;2023-04-24T01:01:19;2.70;;;1.55;;
51862;SDS011;37900;52.996;6.278;2023-04-24T01:03:46;1.77;;;1.20;;
51862;SDS011;37900;52.996;6.278;2023-04-24T01:06:13;2.13;;;1.45;;
51862;SDS011;37900;52.996;6.278;2023-04-24T01:08:39;1.60;;;1.10;;
51862;SDS011;37900;52.996;6.278;2023-04-24T01:11:06;1.17;;;1.02;;
51862;SDS011;37900;52.996;6.278;2023-04-24T01:13:32;2.50;;;1.55;;
51862;SDS011;37900;52.996;6.278;2023-04-24T01:15:58;2.80;;;1.27;;
51862;SDS011;37900;52.996;6.278;2023-04-24T01:18:25;2.42;;;1.30;;
51862;SDS011;37900;52.996;6.278;2023-04-24T01:20:53;1.57;;;1.20;;
51862;SDS011;37900;52.996;6.278;2023-04-24T01:23:21;1.45;;;1.02;;
51862;SDS011;37900;52.996;6.278;2023-04-24T01:25:47;2.17;;;1.40;;
51862;SDS011;37900;52.996;6.278;2023-04-24T01:28:14;1.20;;;1.10;;
51862;SDS011;37900;52.996;6.278;2023-04-24T01:30:40;1.75;;;1.60;;
51862;SDS011;37900;52.996;6.278;2023-04-24T01:33:06;1.65;;;1.10;;
51862;SDS011;37900;52.996;6.278;2023-04-24T01:35:32;1.45;;;1.00;;
51862;SDS011;37900;52.996;6.278;2023-04-24T01:37:59;1.97;;;1.13;;
51862;SDS011;37900;52.996;6.278;2023-04-24T01:40:25;2.47;;;1.52;;
51862;SDS011;37900;52.996;6.278;2023-04-24T01:42:50;1.52;;;1.30;;
51862;SDS011;37900;52.996;6.278;2023-04-24T01:45:17;1.02;;;0.95;;
51862;SDS011;37900;52.996;6.278;2023-04-24T01:47:43;1.73;;;1.40;;
51862;SDS011;37900;52.996;6.278;2023-04-24T01:50:10;1.52;;;0.80;;
51862;SDS011;37900;52.996;6.278;2023-04-24T01:52:36;2.05;;;1.10;;
51862;SDS011;37900;52.996;6.278;2023-04-24T01:55:02;2.30;;;1.10;;
51862;SDS011;37900;52.996;6.278;2023-04-24T01:57:29;1.40;;;1.30;;
51862;SDS011;37900;52.996;6.278;2023-04-24T01:59:55;1.23;;;1.00;;
51862;SDS011;37900;52.996;6.278;2023-04-24T02:02:22;1.38;;;1.20;;
51862;SDS011;37900;52.996;6.278;2023-04-24T02:04:52;1.50;;;1.08;;
51862;SDS011;37900;52.996;6.278;2023-04-24T02:07:20;1.42;;;1.08;;
51862;SDS011;37900;52.996;6.278;2023-04-24T02:09:46;1.73;;;1.30;;
51862;SDS011;37900;52.996;6.278;2023-04-24T02:12:12;1.95;;;1.30;;
51862;SDS011;37900;52.996;6.278;2023-04-24T02:14:39;1.10;;;1.00;;
51862;SDS011;37900;52.996;6.278;2023-04-24T02:17:04;0.90;;;0.80;;
51862;SDS011;37900;52.996;6.278;2023-04-24T02:19:30;2.08;;;0.90;;
51862;SDS011;37900;52.996;6.278;2023-04-24T02:21:56;1.45;;;0.98;;
51862;SDS011;37900;52.996;6.278;2023-04-24T02:24:22;1.63;;;1.15;;
51862;SDS011;37900;52.996;6.278;2023-04-24T02:26:47;0.90;;;0.77;;
51862;SDS011;37900;52.996;6.278;2023-04-24T02:29:13;1.63;;;1.10;;
51862;SDS011;37900;52.996;6.278;2023-04-24T02:31:39;0.85;;;0.85;;
51862;SDS011;37900;52.996;6.278;2023-04-24T02:34:05;1.50;;;1.10;;
51862;SDS011;37900;52.996;6.278;2023-04-24T02:36:31;1.65;;;0.90;;
51862;SDS011;37900;52.996;6.278;2023-04-24T02:38:56;1.42;;;0.82;;
51862;SDS011;37900;52.996;6.278;2023-04-24T02:41:22;1.15;;;0.95;;
51862;SDS011;37900;52.996;6.278;2023-04-24T02:43:48;2.25;;;1.00;;
51862;SDS011;37900;52.996;6.278;2023-04-24T02:46:13;1.50;;;0.90;;
51862;SDS011;37900;52.996;6.278;2023-04-24T02:48:39;1.08;;;0.90;;
51862;SDS011;37900;52.996;6.278;2023-04-24T02:51:05;1.10;;;1.00;;
51862;SDS011;37900;52.996;6.278;2023-04-24T02:53:31;1.65;;;0.90;;
51862;SDS011;37900;52.996;6.278;2023-04-24T02:55:57;1.40;;;0.93;;
51862;SDS011;37900;52.996;6.278;2023-04-24T02:58:23;2.33;;;1.10;;
51862;SDS011;37900;52.996;6.278;2023-04-24T03:00:53;1.63;;;0.93;;
51862;SDS011;37900;52.996;6.278;2023-04-24T03:03:20;1.30;;;0.93;;
51862;SDS011;37900;52.996;6.278;2023-04-24T03:05:46;2.53;;;1.08;;
51862;SDS011;37900;52.996;6.278;2023-04-24T03:08:12;1.58;;;1.25;;
51862;SDS011;37900;52.996;6.278;2023-04-24T03:10:39;1.08;;;0.90;;
51862;SDS011;37900;52.996;6.278;2023-04-24T03:13:05;1.08;;;0.80;;
51862;SDS011;37900;52.996;6.278;2023-04-24T03:15:31;2.83;;;0.93;;
51862;SDS011;37900;52.996;6.278;2023-04-24T03:17:56;1.10;;;1.00;;
51862;SDS011;37900;52.996;6.278;2023-04-24T03:20:22;0.82;;;0.70;;
51862;SDS011;37900;52.996;6.278;2023-04-24T03:22:48;1.45;;;0.95;;
51862;SDS011;37900;52.996;6.278;2023-04-24T03:25:14;1.13;;;1.00;;
51862;SDS011;37900;52.996;6.278;2023-04-24T03:27:40;1.00;;;0.75;;
51862;SDS011;37900;52.996;6.278;2023-04-24T03:30:06;4.10;;;1.10;;
51862;SDS011;37900;52.996;6.278;2023-04-24T03:32:32;0.85;;;0.77;;
51862;SDS011;37900;52.996;6.278;2023-04-24T03:34:58;1.13;;;0.75;;
51862;SDS011;37900;52.996;6.278;2023-04-24T03:37:24;0.82;;;0.80;;
51862;SDS011;37900;52.996;6.278;2023-04-24T03:39:51;2.08;;;1.00;;
51862;SDS011;37900;52.996;6.278;2023-04-24T03:42:17;1.02;;;0.80;;
51862;SDS011;37900;52.996;6.278;2023-04-24T03:44:43;0.80;;;0.70;;
51862;SDS011;37900;52.996;6.278;2023-04-24T03:47:09;0.82;;;0.63;;
51862;SDS011;37900;52.996;6.278;2023-04-24T03:49:35;1.20;;;1.00;;
51862;SDS011;37900;52.996;6.278;2023-04-24T03:52:00;1.63;;;0.80;;
51862;SDS011;37900;52.996;6.278;2023-04-24T03:54:26;1.27;;;0.80;;
51862;SDS011;37900;52.996;6.278;2023-04-24T03:56:52;1.20;;;1.00;;
51862;SDS011;37900;52.996;6.278;2023-04-24T03:59:18;1.17;;;0.93;;
51862;SDS011;37900;52.996;6.278;2023-04-24T04:01:44;1.10;;;0.80;;
51862;SDS011;37900;52.996;6.278;2023-04-24T04:04:10;1.50;;;0.90;;
51862;SDS011;37900;52.996;6.278;2023-04-24T04:06:36;1.30;;;0.90;;
51862;SDS011;37900;52.996;6.278;2023-04-24T04:09:02;1.20;;;1.08;;
51862;SDS011;37900;52.996;6.278;2023-04-24T04:11:28;1.05;;;0.95;;
51862;SDS011;37900;52.996;6.278;2023-04-24T04:13:54;1.92;;;1.10;;
51862;SDS011;37900;52.996;6.278;2023-04-24T04:16:20;2.15;;;1.10;;
51862;SDS011;37900;52.996;6.278;2023-04-24T04:18:46;1.83;;;0.90;;
51862;SDS011;37900;52.996;6.278;2023-04-24T04:21:11;0.68;;;0.68;;
51862;SDS011;37900;52.996;6.278;2023-04-24T04:23:37;1.50;;;0.90;;
51862;SDS011;37900;52.996;6.278;2023-04-24T04:26:03;1.15;;;0.80;;
51862;SDS011;37900;52.996;6.278;2023-04-24T04:28:29;1.02;;;0.85;;
51862;SDS011;37900;52.996;6.278;2023-04-24T04:30:58;1.02;;;0.93;;
51862;SDS011;37900;52.996;6.278;2023-04-24T04:33:24;1.83;;;0.80;;
51862;SDS011;37900;52.996;6.278;2023-04-24T04:35:50;1.52;;;0.88;;
51862;SDS011;37900;52.996;6.278;2023-04-24T04:38:21;0.90;;;0.88;;
51862;SDS011;37900;52.996;6.278;2023-04-24T04:40:47;2.10;;;0.98;;
51862;SDS011;37900;52.996;6.278;2023-04-24T04:43:13;1.45;;;0.90;;
51862;SDS011;37900;52.996;6.278;2023-04-24T04:45:40;1.30;;;1.00;;
51862;SDS011;37900;52.996;6.278;2023-04-24T04:48:07;0.80;;;0.80;;
51862;SDS011;37900;52.996;6.278;2023-04-24T04:50:34;0.60;;;0.60;;
51862;SDS011;37900;52.996;6.278;2023-04-24T04:53:00;1.15;;;0.90;;
51862;SDS011;37900;52.996;6.278;2023-04-24T04:55:26;1.55;;;0.80;;
51862;SDS011;37900;52.996;6.278;2023-04-24T04:57:52;1.45;;;0.60;;
51862;SDS011;37900;52.996;6.278;2023-04-24T05:00:18;2.20;;;1.10;;
51862;SDS011;37900;52.996;6.278;2023-04-24T05:02:44;1.00;;;0.90;;
51862;SDS011;37900;52.996;6.278;2023-04-24T05:05:10;0.68;;;0.68;;
51862;SDS011;37900;52.996;6.278;2023-04-24T05:07:36;0.68;;;0.68;;
51862;SDS011;37900;52.996;6.278;2023-04-24T05:10:01;1.10;;;0.88;;
51862;SDS011;37900;52.996;6.278;2023-04-24T05:12:28;2.05;;;0.90;;
51862;SDS011;37900;52.996;6.278;2023-04-24T05:14:54;1.30;;;0.90;;
51862;SDS011;37900;52.996;6.278;2023-04-24T05:17:19;0.88;;;0.75;;
51862;SDS011;37900;52.996;6.278;2023-04-24T05:19:45;0.70;;;0.70;;
51862;SDS011;37900;52.996;6.278;2023-04-24T05:22:11;0.70;;;0.70;;
51862;SDS011;37900;52.996;6.278;2023-04-24T05:24:37;0.77;;;0.52;;
51862;SDS011;37900;52.996;6.278;2023-04-24T05:27:03;0.70;;;0.70;;
51862;SDS011;37900;52.996;6.278;2023-04-24T05:29:32;0.98;;;0.75;;
51862;SDS011;37900;52.996;6.278;2023-04-24T05:31:58;0.95;;;0.95;;
51862;SDS011;37900;52.996;6.278;2023-04-24T05:34:24;0.68;;;0.55;;
51862;SDS011;37900;52.996;6.278;2023-04-24T05:36:50;0.63;;;0.63;;
51862;SDS011;37900;52.996;6.278;2023-04-24T05:39:16;0.93;;;0.80;;
51862;SDS011;37900;52.996;6.278;2023-04-24T05:41:42;1.05;;;0.95;;
51862;SDS011;37900;52.996;6.278;2023-04-24T05:44:08;2.38;;;0.70;;
51862;SDS011;37900;52.996;6.278;2023-04-24T05:46:34;1.30;;;0.77;;
51862;SDS011;37900;52.996;6.278;2023-04-24T05:49:00;0.95;;;0.60;;
51862;SDS011;37900;52.996;6.278;2023-04-24T05:51:28;0.85;;;0.85;;
51862;SDS011;37900;52.996;6.278;2023-04-24T05:53:54;0.93;;;0.57;;
51862;SDS011;37900;52.996;6.278;2023-04-24T05:56:20;1.38;;;0.70;;
51862;SDS011;37900;52.996;6.278;2023-04-24T05:58:46;0.70;;;0.60;;
51862;SDS011;37900;52.996;6.278;2023-04-24T06:01:12;0.77;;;0.40;;
51862;SDS011;37900;52.996;6.278;2023-04-24T06:03:40;1.00;;;0.75;;
51862;SDS011;37900;52.996;6.278;2023-04-24T06:06:06;1.27;;;0.57;;
51862;SDS011;37900;52.996;6.278;2023-04-24T06:08:32;0.60;;;0.60;;
51862;SDS011;37900;52.996;6.278;2023-04-24T06:10:58;0.60;;;0.57;;
51862;SDS011;37900;52.996;6.278;2023-04-24T06:13:24;0.47;;;0.47;;
51862;SDS011;37900;52.996;6.278;2023-04-24T06:15:50;0.82;;;0.60;;
51862;SDS011;37900;52.996;6.278;2023-04-24T06:18:16;1.00;;;0.90;;
51862;SDS011;37900;52.996;6.278;2023-04-24T06:20:42;0.50;;;0.50;;
51862;SDS011;37900;52.996;6.278;2023-04-24T06:23:08;1.13;;;0.60;;
51862;SDS011;37900;52.996;6.278;2023-04-24T06:25:34;1.48;;;0.80;;
51862;SDS011;37900;52.996;6.278;2023-04-24T06:28:00;0.57;;;0.57;;
51862;SDS011;37900;52.996;6.278;2023-04-24T06:30:26;1.23;;;0.80;;
51862;SDS011;37900;52.996;6.278;2023-04-24T06:32:53;1.13;;;0.90;;
51862;SDS011;37900;52.996;6.278;2023-04-24T06:35:18;0.63;;;0.50;;
51862;SDS011;37900;52.996;6.278;2023-04-24T06:37:44;0.88;;;0.70;;
51862;SDS011;37900;52.996;6.278;2023-04-24T06:40:10;0.60;;;0.57;;
51862;SDS011;37900;52.996;6.278;2023-04-24T06:42:36;0.93;;;0.60;;
51862;SDS011;37900;52.996;6.278;2023-04-24T06:45:02;1.15;;;0.88;;
51862;SDS011;37900;52.996;6.278;2023-04-24T06:47:29;0.80;;;0.80;;
51862;SDS011;37900;52.996;6.278;2023-04-24T06:49:54;1.33;;;0.80;;
51862;SDS011;37900;52.996;6.278;2023-04-24T06:52:20;1.83;;;0.85;;
51862;SDS011;37900;52.996;6.278;2023-04-24T06:54:46;1.40;;;0.85;;
51862;SDS011;37900;52.996;6.278;2023-04-24T06:57:12;2.05;;;1.15;;
51862;SDS011;37900;52.996;6.278;2023-04-24T06:59:38;3.42;;;1.10;;
51862;SDS011;37900;52.996;6.278;2023-04-24T07:02:04;2.33;;;0.80;;
51862;SDS011;37900;52.996;6.278;2023-04-24T07:04:30;2.10;;;0.80;;
51862;SDS011;37900;52.996;6.278;2023-04-24T07:06:56;1.05;;;0.77;;
51862;SDS011;37900;52.996;6.278;2023-04-24T07:09:23;1.48;;;0.70;;
51862;SDS011;37900;52.996;6.278;2023-04-24T07:11:50;0.70;;;0.70;;
51862;SDS011;37900;52.996;6.278;2023-04-24T07:14:17;2.43;;;0.70;;
51862;SDS011;37900;52.996;6.278;2023-04-24T07:16:43;0.95;;;0.85;;
51862;SDS011;37900;52.996;6.278;2023-04-24T07:19:10;1.27;;;0.95;;
51862;SDS011;37900;52.996;6.278;2023-04-24T07:21:36;1.52;;;0.80;;
51862;SDS011;37900;52.996;6.278;2023-04-24T07:24:01;5.32;;;3.25;;
51862;SDS011;37900;52.996;6.278;2023-04-24T07:26:28;6.40;;;3.05;;
51862;SDS011;37900;52.996;6.278;2023-04-24T07:28:55;4.90;;;2.13;;
51862;SDS011;37900;52.996;6.278;2023-04-24T07:31:21;4.03;;;1.92;;
51862;SDS011;37900;52.996;6.278;2023-04-24T07:33:47;3.78;;;1.70;;
51862;SDS011;37900;52.996;6.278;2023-04-24T07:36:13;2.97;;;1.80;;
51862;SDS011;37900;52.996;6.278;2023-04-24T07:38:44;4.13;;;2.30;;
51862;SDS011;37900;52.996;6.278;2023-04-24T07:41:11;3.53;;;1.50;;
51862;SDS011;37900;52.996;6.278;2023-04-24T07:43:37;2.53;;;1.48;;
51862;SDS011;37900;52.996;6.278;2023-04-24T07:46:03;2.60;;;1.48;;
51862;SDS011;37900;52.996;6.278;2023-04-24T07:48:29;2.40;;;1.30;;
51862;SDS011;37900;52.996;6.278;2023-04-24T07:50:54;3.63;;;1.60;;
51862;SDS011;37900;52.996;6.278;2023-04-24T07:53:20;2.75;;;1.75;;
51862;SDS011;37900;52.996;6.278;2023-04-24T07:55:46;3.20;;;1.35;;
51862;SDS011;37900;52.996;6.278;2023-04-24T07:58:12;2.55;;;1.58;;
51862;SDS011;37900;52.996;6.278;2023-04-24T08:00:37;2.53;;;1.30;;
51862;SDS011;37900;52.996;6.278;2023-04-24T08:03:03;2.25;;;1.17;;
51862;SDS011;37900;52.996;6.278;2023-04-24T08:05:29;1.30;;;1.02;;
51862;SDS011;37900;52.996;6.278;2023-04-24T08:07:55;1.90;;;1.52;;
51862;SDS011;37900;52.996;6.278;2023-04-24T08:10:21;2.20;;;1.20;;
51862;SDS011;37900;52.996;6.278;2023-04-24T08:12:47;3.13;;;1.52;;
51862;SDS011;37900;52.996;6.278;2023-04-24T08:15:16;1.95;;;1.13;;
51862;SDS011;37900;52.996;6.278;2023-04-24T08:17:43;3.13;;;1.40;;
51862;SDS011;37900;52.996;6.278;2023-04-24T08:20:10;1.67;;;1.35;;
51862;SDS011;37900;52.996;6.278;2023-04-24T08:22:38;3.35;;;1.50;;
51862;SDS011;37900;52.996;6.278;2023-04-24T08:25:05;2.22;;;1.30;;
51862;SDS011;37900;52.996;6.278;2023-04-24T08:27:31;1.60;;;1.05;;
51862;SDS011;37900;52.996;6.278;2023-04-24T08:29:57;2.72;;;1.50;;
51862;SDS011;37900;52.996;6.278;2023-04-24T08:32:24;3.33;;;1.30;;
51862;SDS011;37900;52.996;6.278;2023-04-24T08:34:54;2.20;;;1.52;;
51862;SDS011;37900;52.996;6.278;2023-04-24T08:37:21;2.22;;;1.50;;
51862;SDS011;37900;52.996;6.278;2023-04-24T08:39:51;2.58;;;1.38;;
51862;SDS011;37900;52.996;6.278;2023-04-24T08:42:18;3.30;;;1.27;;
51862;SDS011;37900;52.996;6.278;2023-04-24T08:44:46;3.97;;;1.48;;
51862;SDS011;37900;52.996;6.278;2023-04-24T08:47:13;2.58;;;1.70;;
51862;SDS011;37900;52.996;6.278;2023-04-24T08:49:40;2.28;;;1.48;;
51862;SDS011;37900;52.996;6.278;2023-04-24T08:52:06;2.63;;;1.23;;
51862;SDS011;37900;52.996;6.278;2023-04-24T08:54:35;2.42;;;1.65;;
51862;SDS011;37900;52.996;6.278;2023-04-24T08:57:02;3.08;;;1.60;;
51862;SDS011;37900;52.996;6.278;2023-04-24T08:59:29;3.45;;;1.50;;
51862;SDS011;37900;52.996;6.278;2023-04-24T09:01:56;2.25;;;1.48;;
51862;SDS011;37900;52.996;6.278;2023-04-24T09:04:23;2.72;;;1.70;;
51862;SDS011;37900;52.996;6.278;2023-04-24T09:06:56;2.55;;;1.30;;
51862;SDS011;37900;52.996;6.278;2023-04-24T09:09:23;3.72;;;1.67;;
51862;SDS011;37900;52.996;6.278;2023-04-24T09:11:50;2.85;;;1.33;;
51862;SDS011;37900;52.996;6.278;2023-04-24T09:14:18;2.30;;;1.60;;
51862;SDS011;37900;52.996;6.278;2023-04-24T09:16:45;2.08;;;1.50;;
51862;SDS011;37900;52.996;6.278;2023-04-24T09:19:11;3.40;;;1.58;;
51862;SDS011;37900;52.996;6.278;2023-04-24T09:21:37;3.85;;;1.92;;
51862;SDS011;37900;52.996;6.278;2023-04-24T09:24:05;1.92;;;1.55;;
51862;SDS011;37900;52.996;6.278;2023-04-24T09:26:34;2.30;;;1.48;;
51862;SDS011;37900;52.996;6.278;2023-04-24T09:29:02;5.20;;;1.90;;
51862;SDS011;37900;52.996;6.278;2023-04-24T09:31:29;3.60;;;1.65;;
51862;SDS011;37900;52.996;6.278;2023-04-24T09:36:29;4.53;;;2.00;;
51862;SDS011;37900;52.996;6.278;2023-04-24T09:39:02;2.70;;;1.60;;
51862;SDS011;37900;52.996;6.278;2023-04-24T09:41:31;3.00;;;1.85;;
51862;SDS011;37900;52.996;6.278;2023-04-24T09:44:01;2.72;;;1.58;;
51862;SDS011;37900;52.996;6.278;2023-04-24T09:46:44;2.83;;;1.55;;
51862;SDS011;37900;52.996;6.278;2023-04-24T09:49:14;2.05;;;1.50;;
51862;SDS011;37900;52.996;6.278;2023-04-24T09:51:41;3.00;;;1.83;;
51862;SDS011;37900;52.996;6.278;2023-04-24T09:54:12;2.20;;;1.60;;
51862;SDS011;37900;52.996;6.278;2023-04-24T09:56:47;3.08;;;2.20;;
51862;SDS011;37900;52.996;6.278;2023-04-24T09:59:16;5.18;;;1.65;;
51862;SDS011;37900;52.996;6.278;2023-04-24T10:01:42;3.13;;;1.90;;
51862;SDS011;37900;52.996;6.278;2023-04-24T10:04:19;2.22;;;1.63;;
51862;SDS011;37900;52.996;6.278;2023-04-24T10:06:50;2.50;;;1.75;;
51862;SDS011;37900;52.996;6.278;2023-04-24T10:09:17;3.08;;;2.38;;
51862;SDS011;37900;52.996;6.278;2023-04-24T10:11:46;2.92;;;1.65;;
51862;SDS011;37900;52.996;6.278;2023-04-24T10:14:18;3.33;;;2.17;;
51862;SDS011;37900;52.996;6.278;2023-04-24T10:16:48;3.15;;;1.80;;
51862;SDS011;37900;52.996;6.278;2023-04-24T10:19:15;4.15;;;1.70;;
51862;SDS011;37900;52.996;6.278;2023-04-24T10:21:43;4.13;;;1.80;;
51862;SDS011;37900;52.996;6.278;2023-04-24T10:24:16;3.17;;;1.77;;
51862;SDS011;37900;52.996;6.278;2023-04-24T10:26:45;2.88;;;1.67;;
51862;SDS011;37900;52.996;6.278;2023-04-24T10:29:13;3.22;;;1.83;;
51862;SDS011;37900;52.996;6.278;2023-04-24T10:31:40;3.90;;;1.90;;
51862;SDS011;37900;52.996;6.278;2023-04-24T10:34:06;1.55;;;1.30;;
51862;SDS011;37900;52.996;6.278;2023-04-24T10:36:34;2.28;;;1.77;;
51862;SDS011;37900;52.996;6.278;2023-04-24T10:39:02;4.43;;;1.60;;
51862;SDS011;37900;52.996;6.278;2023-04-24T10:41:31;4.15;;;1.80;;
51862;SDS011;37900;52.996;6.278;2023-04-24T10:44:07;2.63;;;1.45;;
51862;SDS011;37900;52.996;6.278;2023-04-24T10:46:37;3.30;;;1.40;;
51862;SDS011;37900;52.996;6.278;2023-04-24T10:49:04;2.00;;;1.80;;
51862;SDS011;37900;52.996;6.278;2023-04-24T10:59:43;3.78;;;1.75;;
51862;SDS011;37900;52.996;6.278;2023-04-24T11:02:09;5.80;;;2.42;;
51862;SDS011;37900;52.996;6.278;2023-04-24T11:04:35;4.15;;;1.83;;
51862;SDS011;37900;52.996;6.278;2023-04-24T11:07:02;5.40;;;2.20;;
51862;SDS011;37900;52.996;6.278;2023-04-24T11:09:28;4.68;;;1.85;;
51862;SDS011;37900;52.996;6.278;2023-04-24T11:12:11;6.18;;;1.98;;
51862;SDS011;37900;52.996;6.278;2023-04-24T11:15:21;5.18;;;2.20;;
51862;SDS011;37900;52.996;6.278;2023-04-24T11:17:28;4.93;;;2.33;;
51862;SDS011;37900;52.996;6.278;2023-04-24T11:22:36;6.90;;;2.58;;
51862;SDS011;37900;52.996;6.278;2023-04-24T11:25:05;3.65;;;1.88;;
51862;SDS011;37900;52.996;6.278;2023-04-24T11:27:42;4.07;;;1.92;;
51862;SDS011;37900;52.996;6.278;2023-04-24T11:30:09;4.78;;;1.80;;
51862;SDS011;37900;52.996;6.278;2023-04-24T11:32:36;5.40;;;2.10;;
51862;SDS011;37900;52.996;6.278;2023-04-24T11:37:39;6.57;;;2.13;;
51862;SDS011;37900;52.996;6.278;2023-04-24T11:40:07;7.20;;;1.80;;
51862;SDS011;37900;52.996;6.278;2023-04-24T11:42:39;3.70;;;2.10;;
51862;SDS011;37900;52.996;6.278;2023-04-24T11:45:16;3.45;;;2.20;;
51862;SDS011;37900;52.996;6.278;2023-04-24T11:47:44;4.35;;;2.30;;
51862;SDS011;37900;52.996;6.278;2023-04-24T11:50:11;4.50;;;2.15;;
51862;SDS011;37900;52.996;6.278;2023-04-24T11:52:39;3.70;;;2.13;;
51862;SDS011;37900;52.996;6.278;2023-04-24T11:57:47;3.25;;;2.10;;
51862;SDS011;37900;52.996;6.278;2023-04-24T12:00:24;5.10;;;1.67;;
51862;SDS011;37900;52.996;6.278;2023-04-24T12:02:52;4.53;;;2.20;;
51862;SDS011;37900;52.996;6.278;2023-04-24T12:05:32;3.45;;;2.30;;
51862;SDS011;37900;52.996;6.278;2023-04-24T12:08:00;2.70;;;1.85;;
51862;SDS011;37900;52.996;6.278;2023-04-24T12:10:27;4.25;;;1.77;;
51862;SDS011;37900;52.996;6.278;2023-04-24T12:12:55;3.17;;;1.65;;
51862;SDS011;37900;52.996;6.278;2023-04-24T12:15:22;2.17;;;1.73;;
51862;SDS011;37900;52.996;6.278;2023-04-24T12:17:50;2.90;;;1.60;;
51862;SDS011;37900;52.996;6.278;2023-04-24T12:20:17;5.28;;;2.45;;
51862;SDS011;37900;52.996;6.278;2023-04-24T12:22:50;2.75;;;1.85;;
51862;SDS011;37900;52.996;6.278;2023-04-24T12:25:21;3.75;;;2.05;;
51862;SDS011;37900;52.996;6.278;2023-04-24T12:27:52;4.38;;;2.10;;
51862;SDS011;37900;52.996;6.278;2023-04-24T12:30:41;3.20;;;2.03;;
51862;SDS011;37900;52.996;6.278;2023-04-24T12:33:09;2.92;;;2.15;;
51862;SDS011;37900;52.996;6.278;2023-04-24T12:35:35;3.45;;;1.70;;
51862;SDS011;37900;52.996;6.278;2023-04-24T12:38:07;6.43;;;2.15;;
51862;SDS011;37900;52.996;6.278;2023-04-24T12:40:35;5.45;;;2.17;;
51862;SDS011;37900;52.996;6.278;2023-04-24T12:43:00;2.30;;;1.85;;
51862;SDS011;37900;52.996;6.278;2023-04-24T12:45:26;3.47;;;1.90;;
51862;SDS011;37900;52.996;6.278;2023-04-24T12:47:53;1.58;;;1.40;;
51862;SDS011;37900;52.996;6.278;2023-04-24T12:50:19;3.20;;;1.73;;
51862;SDS011;37900;52.996;6.278;2023-04-24T12:52:45;3.75;;;1.90;;
51862;SDS011;37900;52.996;6.278;2023-04-24T12:55:10;2.35;;;1.42;;
51862;SDS011;37900;52.996;6.278;2023-04-24T12:57:37;2.67;;;1.70;;
51862;SDS011;37900;52.996;6.278;2023-04-24T13:00:05;3.17;;;1.90;;
51862;SDS011;37900;52.996;6.278;2023-04-24T13:02:32;2.33;;;1.42;;
51862;SDS011;37900;52.996;6.278;2023-04-24T13:04:59;2.90;;;1.98;;
51862;SDS011;37900;52.996;6.278;2023-04-24T13:07:25;3.55;;;1.98;;
51862;SDS011;37900;52.996;6.278;2023-04-24T13:09:52;3.88;;;1.75;;
51862;SDS011;37900;52.996;6.278;2023-04-24T13:12:19;1.90;;;1.52;;
51862;SDS011;37900;52.996;6.278;2023-04-24T13:14:46;3.20;;;2.00;;
51862;SDS011;37900;52.996;6.278;2023-04-24T13:17:12;2.03;;;1.73;;
51862;SDS011;37900;52.996;6.278;2023-04-24T13:19:38;3.20;;;2.15;;
51862;SDS011;37900;52.996;6.278;2023-04-24T13:22:06;1.80;;;1.50;;
51862;SDS011;37900;52.996;6.278;2023-04-24T13:24:32;2.72;;;1.70;;
51862;SDS011;37900;52.996;6.278;2023-04-24T13:26:58;2.03;;;1.40;;
51862;SDS011;37900;52.996;6.278;2023-04-24T13:29:26;3.08;;;1.90;;
51862;SDS011;37900;52.996;6.278;2023-04-24T13:31:52;2.08;;;1.50;;
51862;SDS011;37900;52.996;6.278;2023-04-24T13:34:25;3.08;;;1.92;;
51862;SDS011;37900;52.996;6.278;2023-04-24T13:36:55;2.78;;;2.08;;
51862;SDS011;37900;52.996;6.278;2023-04-24T13:39:22;2.90;;;1.50;;
51862;SDS011;37900;52.996;6.278;2023-04-24T13:41:49;1.83;;;1.48;;
51862;SDS011;37900;52.996;6.278;2023-04-24T13:44:16;3.63;;;1.77;;
51862;SDS011;37900;52.996;6.278;2023-04-24T13:49:10;5.28;;;1.63;;
51862;SDS011;37900;52.996;6.278;2023-04-24T13:51:36;2.50;;;1.70;;
51862;SDS011;37900;52.996;6.278;2023-04-24T13:54:02;2.28;;;1.60;;
51862;SDS011;37900;52.996;6.278;2023-04-24T13:56:28;2.33;;;1.60;;
51862;SDS011;37900;52.996;6.278;2023-04-24T13:58:54;2.35;;;1.60;;
51862;SDS011;37900;52.996;6.278;2023-04-24T14:01:20;2.22;;;1.75;;
51862;SDS011;37900;52.996;6.278;2023-04-24T14:03:50;1.92;;;1.70;;
51862;SDS011;37900;52.996;6.278;2023-04-24T14:06:19;2.45;;;1.52;;
51862;SDS011;37900;52.996;6.278;2023-04-24T14:08:45;3.42;;;1.88;;
51862;SDS011;37900;52.996;6.278;2023-04-24T14:11:11;2.78;;;1.90;;
51862;SDS011;37900;52.996;6.278;2023-04-24T14:13:37;2.95;;;1.63;;
51862;SDS011;37900;52.996;6.278;2023-04-24T14:16:04;3.30;;;1.90;;
51862;SDS011;37900;52.996;6.278;2023-04-24T14:18:30;2.47;;;1.70;;
51862;SDS011;37900;52.996;6.278;2023-04-24T14:20:56;2.92;;;1.60;;
51862;SDS011;37900;52.996;6.278;2023-04-24T14:23:21;4.47;;;1.83;;
51862;SDS011;37900;52.996;6.278;2023-04-24T14:25:47;12.07;;;2.35;;
51862;SDS011;37900;52.996;6.278;2023-04-24T14:28:16;3.90;;;1.67;;
51862;SDS011;37900;52.996;6.278;2023-04-24T14:30:43;3.42;;;1.52;;
51862;SDS011;37900;52.996;6.278;2023-04-24T14:33:08;3.25;;;1.50;;
51862;SDS011;37900;52.996;6.278;2023-04-24T14:35:35;2.22;;;1.50;;
51862;SDS011;37900;52.996;6.278;2023-04-24T14:38:01;3.05;;;1.60;;
51862;SDS011;37900;52.996;6.278;2023-04-24T14:40:27;1.90;;;1.70;;
51862;SDS011;37900;52.996;6.278;2023-04-24T14:42:53;3.78;;;1.85;;
51862;SDS011;37900;52.996;6.278;2023-04-24T14:45:18;2.40;;;1.65;;
51862;SDS011;37900;52.996;6.278;2023-04-24T14:47:44;2.90;;;1.60;;
51862;SDS011;37900;52.996;6.278;2023-04-24T14:50:10;3.25;;;1.58;;
51862;SDS011;37900;52.996;6.278;2023-04-24T14:52:37;2.95;;;1.63;;
51862;SDS011;37900;52.996;6.278;2023-04-24T14:55:03;3.28;;;1.95;;
51862;SDS011;37900;52.996;6.278;2023-04-24T14:57:30;4.13;;;1.52;;
51862;SDS011;37900;52.996;6.278;2023-04-24T14:59:55;2.22;;;1.58;;
51862;SDS011;37900;52.996;6.278;2023-04-24T15:02:21;2.78;;;1.90;;
51862;SDS011;37900;52.996;6.278;2023-04-24T15:04:47;4.22;;;1.98;;
51862;SDS011;37900;52.996;6.278;2023-04-24T15:07:13;3.38;;;2.17;;